sensor_id;sensor_type;location;lat;lon;timestamp;pressure;altitude;pressure_sealevel;temperature;humidity
65227;BME280;51805;49.012;12.104;2023-02-12T00:01:45;99667.56;;;22.00;46.34
65227;BME280;51805;49.012;12.104;2023-02-12T00:04:10;99649.66;;;21.99;46.18
65227;BME280;51805;49.012;12.104;2023-02-12T00:06:36;99642.34;;;22.00;46.00
65227;BME280;51805;49.012;12.104;2023-02-12T00:09:02;99649.66;;;21.99;46.04
65227;BME280;51805;49.012;12.104;2023-02-12T00:11:28;99646.38;;;21.97;46.07
65227;BME280;51805;49.012;12.104;2023-02-12T00:13:53;99644.25;;;21.99;46.28
65227;BME280;51805;49.012;12.104;2023-02-12T00:16:21;99638.25;;;21.97;46.01
65227;BME280;51805;49.012;12.104;2023-02-12T00:18:47;99641.19;;;21.96;46.01
65227;BME280;51805;49.012;12.104;2023-02-12T00:21:14;99634.34;;;21.93;46.24
65227;BME280;51805;49.012;12.104;2023-02-12T00:23:40;99632.47;;;21.94;46.12
65227;BME280;51805;49.012;12.104;2023-02-12T00:26:09;99628.91;;;21.93;46.02
65227;BME280;51805;49.012;12.104;2023-02-12T00:28:34;99632.69;;;21.92;46.16
65227;BME280;51805;49.012;12.104;2023-02-12T00:31:04;99638.13;;;21.92;46.10
65227;BME280;51805;49.012;12.104;2023-02-12T00:33:29;99650.00;;;21.91;46.14
65227;BME280;51805;49.012;12.104;2023-02-12T00:35:55;99642.69;;;21.92;46.12
65227;BME280;51805;49.012;12.104;2023-02-12T00:38:20;99653.19;;;21.88;46.17
65227;BME280;51805;49.012;12.104;2023-02-12T00:40:45;99644.47;;;21.86;46.16
65227;BME280;51805;49.012;12.104;2023-02-12T00:43:10;99647.19;;;21.86;46.16
65227;BME280;51805;49.012;12.104;2023-02-12T00:45:35;99652.00;;;21.84;46.27
65227;BME280;51805;49.012;12.104;2023-02-12T00:48:00;99663.41;;;21.86;46.01
65227;BME280;51805;49.012;12.104;2023-02-12T00:50:25;99670.94;;;21.84;46.16
65227;BME280;51805;49.012;12.104;2023-02-12T00:52:51;99675.06;;;21.87;46.15
65227;BME280;51805;49.012;12.104;2023-02-12T00:55:16;99661.19;;;21.83;45.94
65227;BME280;51805;49.012;12.104;2023-02-12T00:57:41;99665.75;;;21.83;46.16
65227;BME280;51805;49.012;12.104;2023-02-12T01:00:06;99661.19;;;21.83;46.11
65227;BME280;51805;49.012;12.104;2023-02-12T01:02:31;99661.66;;;21.80;46.10
65227;BME280;51805;49.012;12.104;2023-02-12T01:04:57;99660.81;;;21.80;46.13
65227;BME280;51805;49.012;12.104;2023-02-12T01:07:22;99669.16;;;21.78;46.15
65227;BME280;51805;49.012;12.104;2023-02-12T01:09:47;99675.66;;;21.77;46.07
65227;BME280;51805;49.012;12.104;2023-02-12T01:12:12;99684.59;;;21.78;46.12
65227;BME280;51805;49.012;12.104;2023-02-12T01:14:37;99683.75;;;21.77;46.11
65227;BME280;51805;49.012;12.104;2023-02-12T01:17:02;99687.50;;;21.76;45.97
65227;BME280;51805;49.012;12.104;2023-02-12T01:19:28;99687.75;;;21.75;46.17
65227;BME280;51805;49.012;12.104;2023-02-12T01:21:53;99689.00;;;21.72;46.04
65227;BME280;51805;49.012;12.104;2023-02-12T01:24:18;99686.31;;;21.72;45.99
65227;BME280;51805;49.012;12.104;2023-02-12T01:26:43;99680.06;;;21.72;46.16
65227;BME280;51805;49.012;12.104;2023-02-12T01:29:09;99675.34;;;21.67;46.25
65227;BME280;51805;49.012;12.104;2023-02-12T01:31:35;99679.13;;;21.66;46.30
65227;BME280;51805;49.012;12.104;2023-02-12T01:34:01;99674.31;;;21.68;46.03
65227;BME280;51805;49.012;12.104;2023-02-12T01:36:28;99674.53;;;21.67;46.26
65227;BME280;51805;49.012;12.104;2023-02-12T01:38:54;99676.03;;;21.63;46.30
65227;BME280;51805;49.012;12.104;2023-02-12T01:41:23;99672.31;;;21.64;46.17
65227;BME280;51805;49.012;12.104;2023-02-12T01:44:09;99669.00;;;21.62;46.11
65227;BME280;51805;49.012;12.104;2023-02-12T01:46:35;99679.34;;;21.65;46.05
65227;BME280;51805;49.012;12.104;2023-02-12T01:49:00;99673.56;;;21.61;46.25
65227;BME280;51805;49.012;12.104;2023-02-12T01:51:27;99686.53;;;21.59;46.17
65227;BME280;51805;49.012;12.104;2023-02-12T01:53:53;99678.41;;;21.59;46.03
65227;BME280;51805;49.012;12.104;2023-02-12T01:56:20;99672.41;;;21.57;46.24
65227;BME280;51805;49.012;12.104;2023-02-12T01:58:46;99674.03;;;21.58;46.08
65227;BME280;51805;49.012;12.104;2023-02-12T02:01:14;99685.31;;;21.55;46.01
65227;BME280;51805;49.012;12.104;2023-02-12T02:03:42;99683.69;;;21.54;46.09
65227;BME280;51805;49.012;12.104;2023-02-12T02:06:44;99683.69;;;21.54;46.20
65227;BME280;51805;49.012;12.104;2023-02-12T02:09:01;99686.63;;;21.53;46.18
65227;BME280;51805;49.012;12.104;2023-02-12T02:11:26;99694.97;;;21.51;46.30
65227;BME280;51805;49.012;12.104;2023-02-12T02:13:52;99694.13;;;21.51;46.22
65227;BME280;51805;49.012;12.104;2023-02-12T02:16:21;99696.22;;;21.48;46.27
65227;BME280;51805;49.012;12.104;2023-02-12T02:18:55;99695.44;;;21.48;46.14
65227;BME280;51805;49.012;12.104;2023-02-12T02:34:10;99688.81;;;21.44;46.06
65227;BME280;51805;49.012;12.104;2023-02-12T02:36:57;99691.41;;;21.39;46.31
65227;BME280;51805;49.012;12.104;2023-02-12T02:39:32;99684.78;;;21.35;46.35
65227;BME280;51805;49.012;12.104;2023-02-12T02:42:03;99667.00;;;21.27;46.43
65227;BME280;51805;49.012;12.104;2023-02-12T02:44:38;99689.38;;;21.34;46.32
65227;BME280;51805;49.012;12.104;2023-02-12T02:47:06;99690.81;;;21.37;46.40
65227;BME280;51805;49.012;12.104;2023-02-12T02:49:36;99689.03;;;21.31;46.41
65227;BME280;51805;49.012;12.104;2023-02-12T02:52:05;99688.56;;;21.34;46.30
65227;BME280;51805;49.012;12.104;2023-02-12T02:54:37;99698.31;;;21.35;46.10
65227;BME280;51805;49.012;12.104;2023-02-12T02:57:05;99689.59;;;21.33;46.31
65227;BME280;51805;49.012;12.104;2023-02-12T02:59:34;99686.31;;;21.31;46.22
65227;BME280;51805;49.012;12.104;2023-02-12T03:02:10;99697.59;;;21.28;46.35
65227;BME280;51805;49.012;12.104;2023-02-12T03:04:38;99698.63;;;21.27;46.18
65227;BME280;51805;49.012;12.104;2023-02-12T03:07:10;99693.00;;;21.28;46.32
65227;BME280;51805;49.012;12.104;2023-02-12T03:09:38;99687.00;;;21.26;46.40
65227;BME280;51805;49.012;12.104;2023-02-12T03:12:14;99684.53;;;21.25;46.32
65227;BME280;51805;49.012;12.104;2023-02-12T03:14:42;99616.84;;;20.84;46.34
65227;BME280;51805;49.012;12.104;2023-02-12T03:17:12;99685.00;;;21.22;46.59
65227;BME280;51805;49.012;12.104;2023-02-12T03:19:41;99689.19;;;21.18;46.73
65227;BME280;51805;49.012;12.104;2023-02-12T03:22:07;99697.31;;;21.18;46.55
65227;BME280;51805;49.012;12.104;2023-02-12T03:27:12;99705.66;;;21.16;46.81
65227;BME280;51805;49.012;12.104;2023-02-12T03:29:40;99701.31;;;21.15;46.91
65227;BME280;51805;49.012;12.104;2023-02-12T03:34:40;99700.09;;;21.11;47.11
65227;BME280;51805;49.012;12.104;2023-02-12T03:37:11;99713.16;;;21.14;46.79
65227;BME280;51805;49.012;12.104;2023-02-12T03:45:00;99711.75;;;21.12;47.06
65227;BME280;51805;49.012;12.104;2023-02-12T03:47:35;99717.22;;;21.05;47.29
65227;BME280;51805;49.012;12.104;2023-02-12T03:50:10;99714.28;;;21.07;47.06
65227;BME280;51805;49.012;12.104;2023-02-12T03:52:37;99722.41;;;21.07;47.18
65227;BME280;51805;49.012;12.104;2023-02-12T03:55:02;99721.00;;;21.04;47.25
65227;BME280;51805;49.012;12.104;2023-02-12T03:57:29;99723.47;;;21.06;47.39
65227;BME280;51805;49.012;12.104;2023-02-12T03:59:57;99723.91;;;21.03;47.38
65227;BME280;51805;49.012;12.104;2023-02-12T04:02:22;99720.03;;;20.99;47.37
65227;BME280;51805;49.012;12.104;2023-02-12T04:04:49;99720.59;;;21.01;47.50
65227;BME280;51805;49.012;12.104;2023-02-12T04:07:15;99728.50;;;21.02;47.34
65227;BME280;51805;49.012;12.104;2023-02-12T04:09:41;99725.44;;;20.99;47.28
65227;BME280;51805;49.012;12.104;2023-02-12T04:23:11;99739.00;;;20.92;47.73
65227;BME280;51805;49.012;12.104;2023-02-12T04:25:42;99738.59;;;20.89;47.65
65227;BME280;51805;49.012;12.104;2023-02-12T04:28:11;99738.38;;;20.90;47.69
65227;BME280;51805;49.012;12.104;2023-02-12T04:30:42;99736.53;;;20.91;47.70
65227;BME280;51805;49.012;12.104;2023-02-12T04:33:09;99745.66;;;20.90;47.69
65227;BME280;51805;49.012;12.104;2023-02-12T04:35:41;99735.28;;;20.87;47.69
65227;BME280;51805;49.012;12.104;2023-02-12T04:38:15;99744.00;;;20.89;47.74
65227;BME280;51805;49.012;12.104;2023-02-12T04:40:43;99746.34;;;20.85;47.70
65227;BME280;51805;49.012;12.104;2023-02-12T04:43:08;99751.16;;;20.83;47.85
65227;BME280;51805;49.012;12.104;2023-02-12T04:45:33;99749.50;;;20.82;47.70
65227;BME280;51805;49.012;12.104;2023-02-12T04:47:59;99744.91;;;20.83;47.98
65227;BME280;51805;49.012;12.104;2023-02-12T04:50:25;99745.16;;;20.81;47.97
65227;BME280;51805;49.012;12.104;2023-02-12T04:52:50;99753.25;;;20.81;47.94
65227;BME280;51805;49.012;12.104;2023-02-12T04:55:15;99750.31;;;20.83;47.92
65227;BME280;51805;49.012;12.104;2023-02-12T04:57:40;99759.50;;;20.82;47.93
65227;BME280;51805;49.012;12.104;2023-02-12T05:00:06;99756.19;;;20.80;47.91
65227;BME280;51805;49.012;12.104;2023-02-12T05:02:32;99751.84;;;20.79;47.92
65227;BME280;51805;49.012;12.104;2023-02-12T05:04:57;99753.69;;;20.78;47.97
65227;BME280;51805;49.012;12.104;2023-02-12T05:07:23;99757.47;;;20.77;48.02
65227;BME280;51805;49.012;12.104;2023-02-12T05:09:48;99746.66;;;20.77;48.15
65227;BME280;51805;49.012;12.104;2023-02-12T05:12:13;99753.31;;;20.75;48.07
65227;BME280;51805;49.012;12.104;2023-02-12T05:14:38;99755.00;;;20.76;48.19
65227;BME280;51805;49.012;12.104;2023-02-12T05:17:03;99764.75;;;20.77;48.44
65227;BME280;51805;49.012;12.104;2023-02-12T05:19:28;99761.59;;;20.80;49.26
65227;BME280;51805;49.012;12.104;2023-02-12T05:21:53;99768.63;;;20.81;50.41
65227;BME280;51805;49.012;12.104;2023-02-12T05:24:18;99763.38;;;20.86;50.54
65227;BME280;51805;49.012;12.104;2023-02-12T05:26:43;99764.44;;;20.85;50.67
65227;BME280;51805;49.012;12.104;2023-02-12T05:29:09;99766.09;;;20.86;50.74
65227;BME280;51805;49.012;12.104;2023-02-12T05:31:34;99768.78;;;20.86;50.58
65227;BME280;51805;49.012;12.104;2023-02-12T05:33:59;99773.59;;;20.84;50.85
65227;BME280;51805;49.012;12.104;2023-02-12T05:36:24;99769.25;;;20.83;50.51
65227;BME280;51805;49.012;12.104;2023-02-12T05:38:50;99768.41;;;20.82;50.32
65227;BME280;51805;49.012;12.104;2023-02-12T05:41:16;99765.69;;;20.82;50.00
65227;BME280;51805;49.012;12.104;2023-02-12T05:43:42;99782.31;;;20.86;49.85
65227;BME280;51805;49.012;12.104;2023-02-12T05:46:08;99777.50;;;20.88;49.72
65227;BME280;51805;49.012;12.104;2023-02-12T05:48:33;99778.53;;;20.87;49.59
65227;BME280;51805;49.012;12.104;2023-02-12T05:51:06;99773.75;;;20.89;49.50
65227;BME280;51805;49.012;12.104;2023-02-12T05:53:31;99775.38;;;20.90;49.40
65227;BME280;51805;49.012;12.104;2023-02-12T05:56:13;99777.63;;;20.93;49.08
65227;BME280;51805;49.012;12.104;2023-02-12T05:58:39;99775.53;;;20.95;49.00
65227;BME280;51805;49.012;12.104;2023-02-12T06:01:08;99771.84;;;20.96;48.83
65227;BME280;51805;49.012;12.104;2023-02-12T06:03:34;99777.25;;;20.96;48.78
65227;BME280;51805;49.012;12.104;2023-02-12T06:05:59;99771.84;;;20.96;48.77
65227;BME280;51805;49.012;12.104;2023-02-12T06:08:24;99779.50;;;20.99;48.57
65227;BME280;51805;49.012;12.104;2023-02-12T06:10:49;99778.44;;;21.00;48.52
65227;BME280;51805;49.012;12.104;2023-02-12T06:13:14;99778.81;;;21.03;48.24
65227;BME280;51805;49.012;12.104;2023-02-12T06:15:39;99786.72;;;21.05;48.38
65227;BME280;51805;49.012;12.104;2023-02-12T06:18:04;99796.47;;;21.06;48.23
65227;BME280;51805;49.012;12.104;2023-02-12T06:20:29;99794.59;;;21.06;48.24
65227;BME280;51805;49.012;12.104;2023-02-12T06:22:55;99801.19;;;21.10;48.13
65227;BME280;51805;49.012;12.104;2023-02-12T06:25:20;99800.13;;;21.11;48.14
65227;BME280;51805;49.012;12.104;2023-02-12T06:27:45;99805.31;;;21.13;48.07
65227;BME280;51805;49.012;12.104;2023-02-12T06:30:10;99809.44;;;21.15;48.12
65227;BME280;51805;49.012;12.104;2023-02-12T06:32:36;99809.22;;;21.17;47.99
65227;BME280;51805;49.012;12.104;2023-02-12T06:35:01;99809.00;;;21.18;47.98
65227;BME280;51805;49.012;12.104;2023-02-12T06:37:26;99816.28;;;21.18;47.78
65227;BME280;51805;49.012;12.104;2023-02-12T06:39:51;99813.56;;;21.18;47.96
65227;BME280;51805;49.012;12.104;2023-02-12T06:42:16;99815.81;;;21.21;47.80
65227;BME280;51805;49.012;12.104;2023-02-12T06:44:41;99815.81;;;21.21;47.75
65227;BME280;51805;49.012;12.104;2023-02-12T06:47:06;99816.44;;;21.23;47.83
65227;BME280;51805;49.012;12.104;2023-02-12T06:49:31;99818.06;;;21.24;47.84
65227;BME280;51805;49.012;12.104;2023-02-12T06:51:57;99818.47;;;21.27;47.68
65227;BME280;51805;49.012;12.104;2023-02-12T06:54:22;99824.47;;;21.29;47.52
65227;BME280;51805;49.012;12.104;2023-02-12T06:56:47;99820.47;;;21.32;47.46
65227;BME280;51805;49.012;12.104;2023-02-12T06:59:13;99825.88;;;21.32;47.45
65227;BME280;51805;49.012;12.104;2023-02-12T07:01:38;99817.31;;;21.35;47.46
65227;BME280;51805;49.012;12.104;2023-02-12T07:04:04;99821.09;;;21.34;47.32
65227;BME280;51805;49.012;12.104;2023-02-12T07:06:29;99826.66;;;21.39;47.30
65227;BME280;51805;49.012;12.104;2023-02-12T07:08:55;99836.25;;;21.35;47.43
65227;BME280;51805;49.012;12.104;2023-02-12T07:11:24;99822.72;;;21.35;47.35
65227;BME280;51805;49.012;12.104;2023-02-12T07:13:49;99825.59;;;21.40;47.19
65227;BME280;51805;49.012;12.104;2023-02-12T07:16:15;99823.72;;;21.40;47.20
65227;BME280;51805;49.012;12.104;2023-02-12T07:18:40;99831.59;;;21.42;47.24
65227;BME280;51805;49.012;12.104;2023-02-12T07:21:06;99822.44;;;21.43;47.24
65227;BME280;51805;49.012;12.104;2023-02-12T07:23:32;99839.50;;;21.43;47.15
65227;BME280;51805;49.012;12.104;2023-02-12T07:25:58;99843.00;;;21.44;47.18
65227;BME280;51805;49.012;12.104;2023-02-12T07:28:23;99840.69;;;21.48;47.11
65227;BME280;51805;49.012;12.104;2023-02-12T07:30:49;99846.69;;;21.50;47.18
65227;BME280;51805;49.012;12.104;2023-02-12T07:33:14;99837.53;;;21.51;47.11
65227;BME280;51805;49.012;12.104;2023-02-12T07:35:39;99840.00;;;21.52;47.06
65227;BME280;51805;49.012;12.104;2023-02-12T07:38:04;99838.94;;;21.53;47.08
65227;BME280;51805;49.012;12.104;2023-02-12T07:40:29;99841.19;;;21.56;47.10
65227;BME280;51805;49.012;12.104;2023-02-12T07:42:54;99828.50;;;21.57;46.78
65227;BME280;51805;49.012;12.104;2023-02-12T07:45:20;99843.88;;;21.56;46.86
65227;BME280;51805;49.012;12.104;2023-02-12T07:47:45;99839.09;;;21.58;46.74
65227;BME280;51805;49.012;12.104;2023-02-12T07:50:10;99843.47;;;21.59;46.75
65227;BME280;51805;49.012;12.104;2023-02-12T07:52:35;99833.22;;;21.61;46.89
65227;BME280;51805;49.012;12.104;2023-02-12T07:55:00;99831.34;;;21.62;46.64
65227;BME280;51805;49.012;12.104;2023-02-12T07:57:25;99833.00;;;21.63;46.73
65227;BME280;51805;49.012;12.104;2023-02-12T07:59:51;99830.06;;;21.64;46.65
65227;BME280;51805;49.012;12.104;2023-02-12T08:02:16;99827.94;;;21.66;46.62
65227;BME280;51805;49.012;12.104;2023-02-12T08:04:41;99832.91;;;21.69;46.48
65227;BME280;51805;49.012;12.104;2023-02-12T08:07:06;99826.66;;;21.69;46.66
65227;BME280;51805;49.012;12.104;2023-02-12T08:09:31;99825.38;;;21.71;46.52
65227;BME280;51805;49.012;12.104;2023-02-12T08:11:56;99837.84;;;21.72;46.64
65227;BME280;51805;49.012;12.104;2023-02-12T08:14:22;99832.44;;;21.72;46.58
65227;BME280;51805;49.012;12.104;2023-02-12T08:16:47;99832.44;;;21.72;46.45
65227;BME280;51805;49.012;12.104;2023-02-12T08:19:13;99838.69;;;21.73;46.58
65227;BME280;51805;49.012;12.104;2023-02-12T08:21:38;99849.91;;;21.76;46.55
65227;BME280;51805;49.012;12.104;2023-02-12T08:24:03;99847.78;;;21.78;46.38
65227;BME280;51805;49.012;12.104;2023-02-12T08:26:29;99849.47;;;21.79;46.39
65227;BME280;51805;49.012;12.104;2023-02-12T08:28:56;99856.75;;;21.79;46.38
65227;BME280;51805;49.012;12.104;2023-02-12T08:31:23;99856.53;;;21.80;46.33
65227;BME280;51805;49.012;12.104;2023-02-12T08:34:04;99843.59;;;21.82;46.32
65227;BME280;51805;49.012;12.104;2023-02-12T08:36:30;99849.81;;;21.83;46.36
65227;BME280;51805;49.012;12.104;2023-02-12T08:38:58;99855.22;;;21.83;46.15
65227;BME280;51805;49.012;12.104;2023-02-12T08:41:24;99846.88;;;21.84;46.60
65227;BME280;51805;49.012;12.104;2023-02-12T08:43:55;99857.25;;;21.87;46.27
65227;BME280;51805;49.012;12.104;2023-02-12T08:46:22;99851.84;;;21.87;46.33
65227;BME280;51805;49.012;12.104;2023-02-12T08:48:47;99860.56;;;21.89;46.27
65227;BME280;51805;49.012;12.104;2023-02-12T08:51:16;99844.31;;;21.89;46.48
65227;BME280;51805;49.012;12.104;2023-02-12T08:53:43;99857.41;;;21.92;46.29
65227;BME280;51805;49.012;12.104;2023-02-12T08:56:10;99853.03;;;21.91;46.27
65227;BME280;51805;49.012;12.104;2023-02-12T08:58:35;99856.31;;;21.93;46.19
65227;BME280;51805;49.012;12.104;2023-02-12T09:01:01;99857.16;;;21.94;46.06
65227;BME280;51805;49.012;12.104;2023-02-12T09:03:26;99851.75;;;21.94;46.10
65227;BME280;51805;49.012;12.104;2023-02-12T09:05:51;99854.22;;;21.95;45.98
65227;BME280;51805;49.012;12.104;2023-02-12T09:08:17;99849.66;;;21.96;46.11
65227;BME280;51805;49.012;12.104;2023-02-12T09:10:42;99855.63;;;21.98;46.17
65227;BME280;51805;49.012;12.104;2023-02-12T09:13:07;99858.94;;;22.00;46.11
65227;BME280;51805;49.012;12.104;2023-02-12T09:15:51;99862.72;;;21.99;45.99
65227;BME280;51805;49.012;12.104;2023-02-12T09:18:16;99859.78;;;22.00;46.13
65227;BME280;51805;49.012;12.104;2023-02-12T09:20:42;99867.69;;;22.02;46.12
65227;BME280;51805;49.012;12.104;2023-02-12T09:23:08;99863.66;;;22.04;46.03
65227;BME280;51805;49.012;12.104;2023-02-12T09:25:33;99867.44;;;22.03;45.90
65227;BME280;51805;49.012;12.104;2023-02-12T09:27:59;99859.94;;;22.05;45.88
65227;BME280;51805;49.012;12.104;2023-02-12T09:30:24;99868.06;;;22.05;45.88
65227;BME280;51805;49.012;12.104;2023-02-12T09:32:50;99866.97;;;22.06;45.91
65227;BME280;51805;49.012;12.104;2023-02-12T09:35:15;99867.81;;;22.07;45.97
65227;BME280;51805;49.012;12.104;2023-02-12T09:37:40;99869.47;;;22.08;45.92
65227;BME280;51805;49.012;12.104;2023-02-12T09:40:05;99866.53;;;22.09;45.87
65227;BME280;51805;49.012;12.104;2023-02-12T09:45:02;99869.84;;;22.11;45.83
65227;BME280;51805;49.012;12.104;2023-02-12T09:50:10;99874.78;;;22.14;45.72
65227;BME280;51805;49.012;12.104;2023-02-12T09:52:36;99880.19;;;22.14;45.79
65227;BME280;51805;49.012;12.104;2023-02-12T09:55:02;99880.78;;;22.16;45.72
65227;BME280;51805;49.012;12.104;2023-02-12T09:57:29;99877.03;;;22.17;45.71
65227;BME280;51805;49.012;12.104;2023-02-12T09:59:57;99873.50;;;22.17;45.71
65227;BME280;51805;49.012;12.104;2023-02-12T10:02:22;99877.03;;;22.17;45.63
65227;BME280;51805;49.012;12.104;2023-02-12T10:04:48;99882.44;;;22.17;45.74
65227;BME280;51805;49.012;12.104;2023-02-12T10:10:12;99871.38;;;22.19;45.70
65227;BME280;51805;49.012;12.104;2023-02-12T10:25:27;99876.72;;;22.25;45.55
65227;BME280;51805;49.012;12.104;2023-02-12T10:27:56;99875.03;;;22.24;45.57
65227;BME280;51805;49.012;12.104;2023-02-12T10:32:47;99880.22;;;22.26;45.70
65227;BME280;51805;49.012;12.104;2023-02-12T10:35:15;99881.06;;;22.26;45.52
65227;BME280;51805;49.012;12.104;2023-02-12T10:40:28;99886.25;;;22.28;45.57
65227;BME280;51805;49.012;12.104;2023-02-12T10:42:55;99873.53;;;22.28;45.63
65227;BME280;51805;49.012;12.104;2023-02-12T10:45:21;99882.22;;;22.30;45.54
65227;BME280;51805;49.012;12.104;2023-02-12T10:47:48;99879.53;;;22.30;45.52
65227;BME280;51805;49.012;12.104;2023-02-12T10:53:00;99872.47;;;22.29;45.52
65227;BME280;51805;49.012;12.104;2023-02-12T10:55:29;99875.78;;;22.31;45.52
65227;BME280;51805;49.012;12.104;2023-02-12T10:57:55;99874.09;;;22.30;45.57
65227;BME280;51805;49.012;12.104;2023-02-12T11:00:23;99872.00;;;22.32;45.53
65227;BME280;51805;49.012;12.104;2023-02-12T11:03:02;99876.97;;;22.35;45.46
65227;BME280;51805;49.012;12.104;2023-02-12T11:05:28;99871.53;;;22.35;45.47
65227;BME280;51805;49.012;12.104;2023-02-12T11:07:54;99872.59;;;22.34;45.54
65227;BME280;51805;49.012;12.104;2023-02-12T11:10:20;99864.47;;;22.34;45.36
65227;BME280;51805;49.012;12.104;2023-02-12T11:12:46;99880.72;;;22.34;45.45
65227;BME280;51805;49.012;12.104;2023-02-12T11:15:15;99865.28;;;22.35;45.44
65227;BME280;51805;49.012;12.104;2023-02-12T11:17:42;99870.69;;;22.35;45.44
65227;BME280;51805;49.012;12.104;2023-02-12T11:25:19;99855.88;;;22.37;45.30
65227;BME280;51805;49.012;12.104;2023-02-12T11:27:50;99855.66;;;22.39;45.49
65227;BME280;51805;49.012;12.104;2023-02-12T11:30:22;99849.41;;;22.38;45.46
65227;BME280;51805;49.012;12.104;2023-02-12T11:32:47;99851.06;;;22.39;45.41
65227;BME280;51805;49.012;12.104;2023-02-12T11:35:14;99852.72;;;22.40;45.41
65227;BME280;51805;49.012;12.104;2023-02-12T11:37:43;99848.94;;;22.41;45.32
65227;BME280;51805;49.012;12.104;2023-02-12T11:40:14;99847.28;;;22.40;45.42
65227;BME280;51805;49.012;12.104;2023-02-12T11:42:40;99857.91;;;22.42;45.32
65227;BME280;51805;49.012;12.104;2023-02-12T11:45:15;99860.38;;;22.43;45.38
65227;BME280;51805;49.012;12.104;2023-02-12T11:47:41;99851.63;;;22.41;45.31
65227;BME280;51805;49.012;12.104;2023-02-12T11:50:08;99849.53;;;22.43;45.38
65227;BME280;51805;49.012;12.104;2023-02-12T11:52:39;99854.94;;;22.43;45.43
65227;BME280;51805;49.012;12.104;2023-02-12T11:55:18;99852.25;;;22.43;45.40
65227;BME280;51805;49.012;12.104;2023-02-12T11:57:45;99851.63;;;22.41;45.32
65227;BME280;51805;49.012;12.104;2023-02-12T12:02:37;99860.22;;;22.38;45.38
65227;BME280;51805;49.012;12.104;2023-02-12T12:05:12;99860.59;;;22.42;45.52
65227;BME280;51805;49.012;12.104;2023-02-12T12:07:40;99863.09;;;22.43;45.40
65227;BME280;51805;49.012;12.104;2023-02-12T12:10:12;99853.31;;;22.42;45.30
65227;BME280;51805;49.012;12.104;2023-02-12T12:12:44;99857.66;;;22.43;45.28
65227;BME280;51805;49.012;12.104;2023-02-12T12:15:22;99852.25;;;22.43;45.51
65227;BME280;51805;49.012;12.104;2023-02-12T12:17:51;99859.31;;;22.44;45.42
65227;BME280;51805;49.012;12.104;2023-02-12T12:20:18;99853.88;;;22.44;45.44
65227;BME280;51805;49.012;12.104;2023-02-12T12:22:50;99848.47;;;22.44;45.41
65227;BME280;51805;49.012;12.104;2023-02-12T12:27:47;99845.53;;;22.46;45.24
65227;BME280;51805;49.012;12.104;2023-02-12T12:30:23;99847.66;;;22.44;45.38
65227;BME280;51805;49.012;12.104;2023-02-12T12:32:52;99844.13;;;22.43;45.32
65227;BME280;51805;49.012;12.104;2023-02-12T12:35:21;99848.69;;;22.43;45.32
65227;BME280;51805;49.012;12.104;2023-02-12T12:37:54;99840.56;;;22.43;45.39
65227;BME280;51805;49.012;12.104;2023-02-12T12:40:24;99843.03;;;22.44;45.32
65227;BME280;51805;49.012;12.104;2023-02-12T12:45:46;99841.78;;;22.47;45.23
65227;BME280;51805;49.012;12.104;2023-02-12T12:53:18;99823.59;;;22.47;45.23
65227;BME280;51805;49.012;12.104;2023-02-12T13:16:18;99825.84;;;22.50;45.35
65227;BME280;51805;49.012;12.104;2023-02-12T13:18:51;99822.13;;;22.51;45.30
65227;BME280;51805;49.012;12.104;2023-02-12T13:23:57;99815.78;;;22.57;45.16
65227;BME280;51805;49.012;12.104;2023-02-12T13:27:05;99817.41;;;22.58;45.08
65227;BME280;51805;49.012;12.104;2023-02-12T13:29:55;99816.13;;;22.61;45.20
65227;BME280;51805;49.012;12.104;2023-02-12T13:34:28;99805.88;;;22.63;44.95
65227;BME280;51805;49.012;12.104;2023-02-12T13:36:54;99808.56;;;22.63;45.12
65227;BME280;51805;49.012;12.104;2023-02-12T13:44:25;99813.19;;;22.62;45.06
65227;BME280;51805;49.012;12.104;2023-02-12T13:46:57;99815.44;;;22.65;45.11
65227;BME280;51805;49.012;12.104;2023-02-12T13:51:49;99813.19;;;22.62;45.17
65227;BME280;51805;49.012;12.104;2023-02-12T13:56:44;99805.63;;;22.64;45.10
65227;BME280;51805;49.012;12.104;2023-02-12T14:01:54;99805.16;;;22.67;45.07
65227;BME280;51805;49.012;12.104;2023-02-12T14:06:51;99800.94;;;22.71;44.84
65227;BME280;51805;49.012;12.104;2023-02-12T14:09:19;99808.69;;;22.68;45.00
65227;BME280;51805;49.012;12.104;2023-02-12T14:11:51;99808.94;;;22.66;45.04
65227;BME280;51805;49.012;12.104;2023-02-12T14:14:31;99807.28;;;22.65;45.30
65227;BME280;51805;49.012;12.104;2023-02-12T14:16:57;99808.34;;;22.64;45.04
65227;BME280;51805;49.012;12.104;2023-02-12T14:24:51;99805.50;;;22.59;45.15
65227;BME280;51805;49.012;12.104;2023-02-12T14:27:18;99805.72;;;22.58;45.06
65227;BME280;51805;49.012;12.104;2023-02-12T14:30:20;99808.44;;;22.58;45.07
65227;BME280;51805;49.012;12.104;2023-02-12T14:37:49;99807.03;;;22.55;45.30
65227;BME280;51805;49.012;12.104;2023-02-12T14:42:59;99800.78;;;22.55;45.17
65227;BME280;51805;49.012;12.104;2023-02-12T14:47:55;99798.06;;;22.55;45.38
65227;BME280;51805;49.012;12.104;2023-02-12T14:50:22;99797.28;;;22.54;45.31
65227;BME280;51805;49.012;12.104;2023-02-12T14:53:06;99796.69;;;22.52;45.22
65227;BME280;51805;49.012;12.104;2023-02-12T14:55:37;99799.63;;;22.51;45.18
65227;BME280;51805;49.012;12.104;2023-02-12T14:58:04;99796.91;;;22.51;45.20
65227;BME280;51805;49.012;12.104;2023-02-12T15:03:00;99787.91;;;22.50;45.32
65227;BME280;51805;49.012;12.104;2023-02-12T15:05:33;99793.34;;;22.50;45.26
65227;BME280;51805;49.012;12.104;2023-02-12T15:08:02;99791.03;;;22.54;45.19
65227;BME280;51805;49.012;12.104;2023-02-12T15:20:37;99782.06;;;22.53;45.08
65227;BME280;51805;49.012;12.104;2023-02-12T15:25:49;99783.38;;;22.51;45.15